Time;durP1;ratioP1;P1;durP2;ratioP2;P2;SDS_P1;SDS_P2;PMS_P1;PMS_P2;Temp;Humidity;BMP_temperature;BMP_pressure;BME280_temperature;BME280_humidity;BME280_pressure;Samples;Min_cycle;Max_cycle;Signal;HPM_P1;HPM_P2
2022/08/04 00:01:08;;;;;;;4.72;4.38;;;;;;;20.72;61.35;95058.03;5096993;28;20185;-67
2022/08/04 00:03:43;;;;;;;4.80;4.50;;;;;;;20.71;61.58;95067.66;5097551;28;20189;-67
2022/08/04 00:06:16;;;;;;;5.05;4.68;;;;;;;20.68;61.78;95060.06;5096845;28;20200;-67
2022/08/04 00:08:46;;;;;;;4.60;4.30;;;;;;;20.63;61.86;95055.72;5097581;28;20185;-67
2022/08/04 00:11:16;;;;;;;5.20;4.80;;;;;;;20.59;61.44;95045.78;5096390;28;20223;-68
2022/08/04 00:13:51;;;;;;;4.82;4.50;;;;;;;20.53;62.00;95050.25;5095866;28;20204;-67
2022/08/04 00:16:22;;;;;;;5.15;4.75;;;;;;;20.52;62.29;95048.69;5096357;28;20199;-68
2022/08/04 00:18:56;;;;;;;4.85;4.45;;;;;;;20.52;61.96;95043.06;5096033;28;20647;-68
2022/08/04 00:21:26;;;;;;;5.07;4.68;;;;;;;20.54;62.19;95047.03;5096054;28;20193;-68
2022/08/04 00:23:55;;;;;;;5.22;4.80;;;;;;;20.50;62.18;95045.47;5097236;28;20193;-68
2022/08/04 00:26:23;;;;;;;5.00;4.60;;;;;;;20.51;62.08;95042.25;5097078;28;20199;-68
2022/08/04 00:28:50;;;;;;;4.60;4.30;;;;;;;20.48;62.61;95040.28;5097124;28;20577;-68
2022/08/04 00:31:19;;;;;;;5.10;4.65;;;;;;;20.44;62.34;95034.72;5095856;28;20528;-68
2022/08/04 00:33:50;;;;;;;5.13;4.65;;;;;;;20.40;62.19;95038.75;5097011;28;20199;-68
2022/08/04 00:36:18;;;;;;;5.28;4.55;;;;;;;20.35;62.22;95042.03;5096972;28;20181;-68
2022/08/04 00:38:48;;;;;;;5.40;4.90;;;;;;;20.33;62.46;95044.44;5096735;28;20564;-68
2022/08/04 00:41:22;;;;;;;5.10;4.60;;;;;;;20.29;62.27;95049.28;5096916;28;20180;-68
2022/08/04 00:44:00;;;;;;;4.78;4.47;;;;;;;20.22;62.35;95052.16;5096830;28;20207;-67
2022/08/04 00:46:39;;;;;;;4.80;4.40;;;;;;;20.18;62.94;95050.19;5096942;28;20188;-67
2022/08/04 00:49:32;;;;;;;5.05;4.65;;;;;;;20.20;62.73;95050.56;5095889;28;20200;-67
2022/08/04 00:52:11;;;;;;;4.82;4.43;;;;;;;20.24;62.87;95046.94;5053563;28;20231;-67
2022/08/04 00:54:59;;;;;;;5.18;4.78;;;;;;;20.24;63.20;95052.53;5096422;28;20239;-67
2022/08/04 00:57:48;;;;;;;4.60;4.20;;;;;;;20.25;63.26;95054.13;5096129;28;20181;-67
2022/08/04 01:00:16;;;;;;;4.65;4.32;;;;;;;20.24;63.16;95058.16;5096516;28;20204;-67
2022/08/04 01:03:00;;;;;;;4.85;4.55;;;;;;;20.20;62.91;95058.97;5095523;28;20200;-67
2022/08/04 01:05:38;;;;;;;4.90;4.50;;;;;;;20.20;63.11;95056.16;5095436;28;20192;-67
2022/08/04 01:08:24;;;;;;;5.30;4.90;;;;;;;20.18;63.31;95055.00;5095847;28;20203;-67
2022/08/04 01:11:01;;;;;;;4.90;4.40;;;;;;;20.13;63.31;95058.25;5095287;28;20212;-67
2022/08/04 01:13:57;;;;;;;5.15;4.65;;;;;;;20.08;63.07;95065.09;5094964;28;20188;-68
2022/08/04 01:16:26;;;;;;;5.38;4.78;;;;;;;20.05;63.09;95062.34;5095865;28;20543;-68
2022/08/04 01:18:59;;;;;;;5.40;4.85;;;;;;;20.04;63.71;95069.91;5095458;28;20257;-68
2022/08/04 01:22:00;;;;;;;5.40;4.90;;;;;;;20.01;63.38;95070.78;5096068;28;20207;-67
2022/08/04 01:25:02;;;;;;;5.05;4.60;;;;;;;19.97;63.11;95069.97;5095187;28;20573;-67
2022/08/04 01:27:46;;;;;;;5.13;4.70;;;;;;;19.94;63.54;95066.03;5096148;28;20184;-67
2022/08/04 01:30:16;;;;;;;6.15;4.95;;;;;;;19.88;63.24;95067.66;5095428;28;20197;-67
2022/08/04 01:32:50;;;;;;;4.82;4.43;;;;;;;19.83;63.59;95073.72;5094939;28;20215;-67
2022/08/04 01:35:24;;;;;;;5.47;4.90;;;;;;;19.79;63.53;95072.13;5095085;28;20558;-67
2022/08/04 01:38:09;;;;;;;5.40;4.93;;;;;;;19.76;63.95;95073.78;5095805;28;20208;-66
2022/08/04 01:40:37;;;;;;;5.32;4.82;;;;;;;19.79;63.77;95061.75;5095780;28;20181;-67
2022/08/04 01:43:08;;;;;;;5.00;4.60;;;;;;;19.80;63.94;95060.56;5095693;28;20200;-66
2022/08/04 01:45:37;;;;;;;5.38;4.97;;;;;;;19.75;64.36;95054.59;5094779;28;20291;-66
2022/08/04 01:48:07;;;;;;;5.97;4.90;;;;;;;19.70;64.78;95056.63;5094930;28;20204;-67
2022/08/04 01:50:35;;;;;;;4.78;4.47;;;;;;;19.67;64.52;95053.84;5094470;28;20219;-67
2022/08/04 01:53:04;;;;;;;5.70;5.15;;;;;;;19.67;64.28;95059.44;5095652;28;20191;-68
2022/08/04 01:55:31;;;;;;;5.00;4.57;;;;;;;19.70;64.64;95061.44;5094011;28;20232;-67
2022/08/04 01:57:59;;;;;;;5.25;4.60;;;;;;;19.73;64.20;95054.22;5094626;28;20204;-67
2022/08/04 02:00:29;;;;;;;5.90;5.40;;;;;;;19.74;63.76;95065.00;5095778;28;20180;-67
2022/08/04 02:02:58;;;;;;;5.40;4.82;;;;;;;19.75;64.15;95068.56;5094790;28;20269;-67
2022/08/04 02:05:27;;;;;;;5.32;4.85;;;;;;;19.70;64.18;95061.44;5094493;28;20204;-67
2022/08/04 02:08:08;;;;;;;6.03;5.15;;;;;;;19.68;64.34;95067.44;5095435;28;20187;-67
2022/08/04 02:10:45;;;;;;;5.53;5.05;;;;;;;19.68;64.10;95053.47;5095014;28;20285;-67
2022/08/04 02:13:19;;;;;;;5.68;5.20;;;;;;;19.63;63.90;95053.09;5094422;28;20199;-67
2022/08/04 02:15:56;;;;;;;5.45;5.03;;;;;;;19.58;64.02;95056.31;5094347;28;20197;-67
2022/08/04 02:18:31;;;;;;;5.95;5.45;;;;;;;19.56;64.35;95053.91;5094402;28;20223;-66
2022/08/04 02:20:59;;;;;;;5.60;5.10;;;;;;;19.55;64.31;95065.53;5094522;28;20200;-68
2022/08/04 02:23:32;;;;;;;5.55;5.00;;;;;;;19.52;64.26;95058.75;5095193;28;20283;-67
2022/08/04 02:26:04;;;;;;;5.57;5.00;;;;;;;19.51;64.23;95059.94;5099502;28;20173;-67
2022/08/04 02:28:40;;;;;;;5.40;5.00;;;;;;;19.49;64.57;95051.16;5099452;28;20260;-68
2022/08/04 02:31:15;;;;;;;5.45;4.95;;;;;;;19.42;63.86;95054.81;5099364;28;20268;-68
2022/08/04 02:33:46;;;;;;;6.32;5.72;;;;;;;19.38;64.34;95048.44;5099052;28;20199;-68
2022/08/04 02:36:22;;;;;;;5.80;5.30;;;;;;;19.33;64.19;95050.91;5099019;28;20188;-69
2022/08/04 02:38:56;;;;;;;5.47;4.97;;;;;;;19.29;65.04;95048.13;5098418;28;20192;-69
2022/08/04 02:41:25;;;;;;;5.40;5.00;;;;;;;19.24;64.99;95057.75;5098380;28;20257;-68
2022/08/04 02:43:57;;;;;;;5.80;5.40;;;;;;;19.29;64.74;95062.09;5099117;28;20188;-67
2022/08/04 02:46:25;;;;;;;5.40;5.00;;;;;;;19.31;64.82;95058.88;5098663;28;20258;-67
2022/08/04 02:48:56;;;;;;;6.15;5.43;;;;;;;19.32;65.00;95066.88;5098930;28;20195;-67
2022/08/04 02:51:28;;;;;;;5.70;5.20;;;;;;;19.28;64.93;95071.72;5099112;28;20208;-67
2022/08/04 02:53:58;;;;;;;5.10;4.70;;;;;;;19.25;64.69;95066.94;5099288;28;20199;-67
2022/08/04 02:56:29;;;;;;;6.05;5.45;;;;;;;19.25;65.05;95064.13;5098794;28;20235;-67
2022/08/04 02:58:59;;;;;;;5.20;4.72;;;;;;;19.26;64.66;95064.91;5098820;28;20196;-67
2022/08/04 03:01:26;;;;;;;4.80;4.45;;;;;;;19.23;64.61;95070.13;5097945;28;20199;-67
2022/08/04 03:04:15;;;;;;;4.80;4.28;;;;;;;19.21;64.32;95074.53;5098793;28;20190;-69
2022/08/04 03:07:03;;;;;;;4.95;4.55;;;;;;;19.20;64.33;95073.72;5098398;28;20663;-69
2022/08/04 03:09:49;;;;;;;4.95;4.65;;;;;;;19.20;64.35;95076.53;5097708;28;20192;-69
2022/08/04 03:12:40;;;;;;;4.95;4.55;;;;;;;19.19;64.64;95074.16;5097282;28;20298;-69
2022/08/04 03:15:51;;;;;;;5.25;4.80;;;;;;;19.14;64.35;95077.38;5098571;28;20218;-68
2022/08/04 03:19:02;;;;;;;5.25;4.80;;;;;;;19.14;64.11;95066.19;5073451;28;20204;-69
2022/08/04 03:22:04;;;;;;;4.82;4.45;;;;;;;19.13;63.90;95070.19;5018988;28;20206;-69
2022/08/04 03:24:57;;;;;;;5.22;4.82;;;;;;;19.12;63.47;95071.38;5036354;28;20224;-69
2022/08/04 03:28:14;;;;;;;5.15;4.75;;;;;;;19.09;63.87;95069.41;5019756;28;20291;-69
2022/08/04 03:30:53;;;;;;;5.30;4.90;;;;;;;19.04;63.77;95067.84;5019196;28;20210;-70
2022/08/04 03:34:02;;;;;;;4.97;4.57;;;;;;;19.03;63.90;95068.22;5019541;28;20210;-70
2022/08/04 03:37:02;;;;;;;5.53;5.13;;;;;;;19.02;64.22;95063.84;5018407;28;20201;-69
2022/08/04 03:40:14;;;;;;;5.47;4.97;;;;;;;18.98;64.35;95067.47;5019446;28;20198;-69
2022/08/04 03:43:23;;;;;;;5.55;5.05;;;;;;;18.98;64.07;95069.47;5019397;28;20209;-69
2022/08/04 03:46:16;;;;;;;5.25;4.68;;;;;;;18.96;64.37;95067.09;5035811;28;20213;-69
2022/08/04 03:49:22;;;;;;;4.80;4.40;;;;;;;18.99;64.30;95069.06;5019274;28;20207;-69
2022/08/04 03:55:18;;;;;;;5.38;4.85;;;;;;;18.97;64.08;95065.09;5035626;28;20647;-69
2022/08/04 03:57:56;;;;;;;5.90;5.03;;;;;;;18.94;64.18;95077.88;5060924;28;20277;-70
2022/08/04 04:00:28;;;;;;;5.30;4.88;;;;;;;18.93;64.38;95072.69;5097028;28;20203;-69
2022/08/04 04:03:46;;;;;;;5.10;4.57;;;;;;;18.93;64.00;95069.91;5098039;28;20222;-70
2022/08/04 04:06:54;;;;;;;5.20;4.53;;;;;;;18.95;64.09;95067.47;5085172;28;20208;-71
2022/08/04 04:09:55;;;;;;;5.50;5.00;;;;;;;18.99;63.83;95068.25;5096335;28;20200;-71
2022/08/04 04:12:51;;;;;;;5.55;4.47;;;;;;;19.05;63.76;95072.22;5095321;28;20242;-70
2022/08/04 04:15:51;;;;;;;4.95;4.50;;;;;;;19.05;64.11;95080.59;5081201;28;20219;-71
2022/08/04 04:18:38;;;;;;;6.35;5.85;;;;;;;19.09;63.80;95086.19;5095072;28;20640;-71
2022/08/04 04:21:32;;;;;;;7.57;5.97;;;;;;;19.10;64.05;95084.97;5097112;28;20190;-71
2022/08/04 04:24:23;;;;;;;6.22;5.63;;;;;;;19.12;63.75;95091.75;5092885;28;20200;-71
2022/08/04 04:26:57;;;;;;;6.22;5.63;;;;;;;19.15;63.97;95085.34;5097260;28;20242;-70
2022/08/04 04:30:01;;;;;;;6.00;5.50;;;;;;;19.18;63.92;95078.94;5096195;28;20199;-71
2022/08/04 04:32:38;;;;;;;6.47;5.75;;;;;;;19.20;64.43;95087.69;5078982;28;20234;-71
2022/08/04 04:35:19;;;;;;;7.30;5.28;;;;;;;19.24;64.08;95080.13;5096397;28;20229;-71
2022/08/04 04:38:04;;;;;;;6.07;5.30;;;;;;;19.26;63.81;95085.28;5095984;28;20192;-71
2022/08/04 04:40:41;;;;;;;6.20;5.60;;;;;;;19.26;63.65;95090.09;5096821;28;20192;-70
2022/08/04 04:43:17;;;;;;;5.53;4.90;;;;;;;19.25;63.33;95089.28;5096008;28;20184;-71
2022/08/04 04:45:51;;;;;;;6.38;5.82;;;;;;;19.27;63.85;95083.28;5095854;28;20192;-71
2022/08/04 04:48:29;;;;;;;6.53;5.43;;;;;;;19.28;64.11;95088.47;5095778;28;20188;-71
2022/08/04 04:51:09;;;;;;;6.10;5.57;;;;;;;19.31;64.22;95095.25;5095970;28;20208;-71
2022/08/04 04:53:51;;;;;;;6.55;5.07;;;;;;;19.33;63.74;95090.84;5095671;28;20196;-71
2022/08/04 04:56:28;;;;;;;6.35;5.85;;;;;;;19.34;63.92;95091.63;5096224;28;20296;-71
2022/08/04 04:58:56;;;;;;;6.25;5.30;;;;;;;19.36;64.12;95089.22;5096320;28;20627;-71
2022/08/04 05:01:59;;;;;;;5.55;5.05;;;;;;;19.38;63.77;95104.38;5095502;28;20648;-71
2022/08/04 05:04:49;;;;;;;5.63;5.05;;;;;;;19.42;63.78;95098.75;5095767;28;20200;-71
2022/08/04 05:07:51;;;;;;;5.50;4.97;;;;;;;19.41;64.30;95086.00;5095571;28;20195;-71
2022/08/04 05:10:34;;;;;;;9.07;5.88;;;;;;;19.39;64.04;95089.22;5096546;28;20219;-71
2022/08/04 05:13:18;;;;;;;6.20;5.10;;;;;;;19.44;64.31;95093.56;5095201;28;20208;-71
2022/08/04 05:15:47;;;;;;;6.13;5.40;;;;;;;19.47;64.10;95092.75;5095260;28;20207;-71
2022/08/04 05:18:21;;;;;;;6.57;5.60;;;;;;;19.44;64.06;95102.75;5095331;28;20199;-71
2022/08/04 05:20:53;;;;;;;8.13;5.82;;;;;;;19.45;63.68;95107.13;5095721;28;20214;-71
2022/08/04 05:23:28;;;;;;;6.03;5.53;;;;;;;19.49;64.09;95105.09;5094986;28;20196;-71
2022/08/04 05:26:00;;;;;;;6.88;5.97;;;;;;;19.52;64.92;95103.50;5095141;28;20529;-71
2022/08/04 05:28:34;;;;;;;6.05;5.25;;;;;;;19.55;64.82;95097.09;5095449;28;20192;-71
2022/08/04 05:31:07;;;;;;;5.60;5.20;;;;;;;19.58;64.91;95107.47;5095315;28;20191;-71
2022/08/04 05:33:39;;;;;;;6.22;5.63;;;;;;;19.59;64.86;95097.06;5094891;28;20544;-71
2022/08/04 05:36:11;;;;;;;6.63;6.10;;;;;;;19.62;64.38;95099.88;5095310;28;20196;-71
2022/08/04 05:38:41;;;;;;;6.82;5.95;;;;;;;19.65;64.73;95101.06;5095731;28;20185;-71
2022/08/04 05:41:09;;;;;;;6.93;6.32;;;;;;;19.68;64.74;95106.63;5095121;28;20193;-72
2022/08/04 05:43:40;;;;;;;7.15;6.47;;;;;;;19.69;65.10;95101.81;5095733;28;20181;-71
2022/08/04 05:46:09;;;;;;;7.53;6.78;;;;;;;19.73;64.87;95107.38;5095332;28;20192;-71
2022/08/04 05:48:37;;;;;;;7.13;6.63;;;;;;;19.76;64.97;95103.78;5095061;28;20225;-71
2022/08/04 05:51:06;;;;;;;7.40;6.90;;;;;;;19.80;64.75;95108.13;5094760;28;20196;-71
2022/08/04 05:53:33;;;;;;;7.95;7.10;;;;;;;19.85;64.89;95110.47;5094578;28;20216;-72
2022/08/04 05:56:03;;;;;;;10.05;9.13;;;;;;;19.91;64.28;95106.03;5094458;28;20224;-71
2022/08/04 05:58:31;;;;;;;11.65;10.55;;;;;;;20.00;64.28;95104.75;5094114;28;20210;-71
2022/08/04 06:01:00;;;;;;;11.30;10.20;;;;;;;20.05;63.75;95107.13;5094710;28;20204;-71
2022/08/04 06:03:28;;;;;;;9.02;8.23;;;;;;;20.08;64.29;95117.47;5094133;28;20604;-71
2022/08/04 06:05:57;;;;;;;8.30;7.45;;;;;;;20.11;63.96;95114.66;5095108;28;20212;-71
2022/08/04 06:08:25;;;;;;;8.07;7.38;;;;;;;20.12;64.76;95107.84;5095464;28;20184;-71
2022/08/04 06:10:54;;;;;;;7.35;6.75;;;;;;;20.13;63.68;95112.25;5094523;28;20200;-71
2022/08/04 06:13:29;;;;;;;7.03;6.45;;;;;;;20.18;63.76;95116.59;5095012;28;20563;-71
2022/08/04 06:15:58;;;;;;;6.50;6.03;;;;;;;20.25;63.72;95121.34;5094595;28;20191;-71
2022/08/04 06:18:28;;;;;;;9.20;6.57;;;;;;;20.33;64.04;95123.63;5094502;28;20215;-71
2022/08/04 06:20:58;;;;;;;7.43;6.72;;;;;;;20.39;63.81;95121.19;5094664;28;20220;-69
2022/08/04 06:23:30;;;;;;;7.60;7.00;;;;;;;20.46;63.68;95117.53;5094392;28;20200;-69
2022/08/04 06:25:59;;;;;;;7.13;6.47;;;;;;;20.47;63.84;95114.31;5095024;28;20286;-69
2022/08/04 06:28:31;;;;;;;7.10;6.45;;;;;;;20.51;63.61;95117.91;5094366;28;20215;-69
2022/08/04 06:31:02;;;;;;;9.57;7.82;;;;;;;20.55;63.10;95115.88;5094392;28;20197;-69
2022/08/04 06:33:33;;;;;;;7.70;6.50;;;;;;;20.58;62.94;95123.41;5093963;28;20262;-69
2022/08/04 06:36:04;;;;;;;7.43;6.43;;;;;;;20.63;63.13;95125.00;5094858;28;20192;-69
2022/08/04 06:38:37;;;;;;;7.40;6.70;;;;;;;20.65;63.52;95117.75;5093889;28;20230;-72
2022/08/04 06:41:08;;;;;;;7.55;6.30;;;;;;;20.66;63.15;95108.16;5094203;28;20583;-71
2022/08/04 06:43:38;;;;;;;8.00;6.78;;;;;;;20.73;62.94;95112.06;5094095;28;20196;-71
2022/08/04 06:46:09;;;;;;;7.85;6.55;;;;;;;20.78;62.77;95115.22;5094734;28;20196;-71
2022/08/04 06:48:36;;;;;;;7.13;6.30;;;;;;;20.85;63.13;95125.56;5094808;28;20184;-71
2022/08/04 06:51:04;;;;;;;7.22;6.50;;;;;;;20.90;63.05;95127.88;5093738;28;20204;-71
2022/08/04 06:53:32;;;;;;;7.35;6.75;;;;;;;20.92;62.89;95128.28;5094791;28;20215;-71
2022/08/04 06:55:59;;;;;;;7.32;6.60;;;;;;;20.95;63.13;95119.00;5094237;28;20236;-71
2022/08/04 06:58:28;;;;;;;7.25;6.65;;;;;;;20.99;62.82;95118.97;5094480;28;20204;-71
2022/08/04 07:01:00;;;;;;;8.32;7.63;;;;;;;21.02;62.45;95109.72;5094947;28;20185;-71
2022/08/04 07:03:28;;;;;;;7.50;6.88;;;;;;;21.10;62.48;95116.84;5076859;28;20200;-71
2022/08/04 07:05:56;;;;;;;5.35;4.95;;;;;;;21.14;61.92;95109.97;5093864;28;20204;-71
2022/08/04 07:08:24;;;;;;;7.60;6.82;;;;;;;21.21;61.87;95120.31;5093824;28;20203;-71
2022/08/04 07:10:53;;;;;;;7.90;7.20;;;;;;;21.26;61.72;95114.22;5096093;28;20207;-71
2022/08/04 07:13:23;;;;;;;7.78;7.18;;;;;;;21.31;61.90;95121.34;5097644;28;20549;-70
2022/08/04 07:15:52;;;;;;;7.85;7.05;;;;;;;21.34;61.72;95121.34;5097692;28;20188;-71
2022/08/04 07:18:22;;;;;;;7.07;6.47;;;;;;;21.34;61.16;95118.53;5097713;28;20192;-71
2022/08/04 07:20:50;;;;;;;6.50;5.95;;;;;;;21.37;61.21;95117.69;5097765;28;20211;-71
2022/08/04 07:23:24;;;;;;;7.78;7.07;;;;;;;21.43;60.95;95109.59;5097672;28;20188;-70
2022/08/04 07:25:53;;;;;;;5.88;5.38;;;;;;;21.52;60.60;95112.66;5080541;28;20208;-71
2022/08/04 07:28:22;;;;;;;5.55;4.95;;;;;;;21.66;60.26;95113.69;5097410;28;20245;-70
2022/08/04 07:30:49;;;;;;;7.18;6.40;;;;;;;21.75;60.24;95099.91;5097216;28;20200;-71
2022/08/04 07:33:18;;;;;;;6.63;6.03;;;;;;;21.81;59.99;95103.81;5097357;28;20232;-71
2022/08/04 07:35:49;;;;;;;7.07;6.43;;;;;;;21.83;59.81;95099.38;5097151;28;20214;-70
2022/08/04 07:38:17;;;;;;;6.90;6.20;;;;;;;21.84;59.90;95097.38;5097221;28;20199;-71
2022/08/04 07:40:45;;;;;;;6.80;6.20;;;;;;;21.84;59.53;95094.56;5097526;28;20192;-71
2022/08/04 07:43:12;;;;;;;5.97;5.47;;;;;;;21.88;59.47;95098.09;5096855;28;20203;-71
2022/08/04 07:45:40;;;;;;;5.95;5.40;;;;;;;21.95;59.21;95094.38;5097623;28;20199;-71
2022/08/04 07:48:09;;;;;;;6.40;5.80;;;;;;;22.00;58.84;95102.31;5097331;28;20261;-71
2022/08/04 07:50:38;;;;;;;6.65;5.63;;;;;;;22.07;58.87;95099.38;5096756;28;20203;-71
2022/08/04 07:53:12;;;;;;;7.35;6.65;;;;;;;22.14;59.64;95104.91;5097911;28;20205;-71
2022/08/04 07:55:40;;;;;;;8.63;7.82;;;;;;;22.17;59.95;95101.25;5097421;28;20242;-71
2022/08/04 07:58:08;;;;;;;8.35;7.60;;;;;;;22.18;59.64;95091.59;5098188;28;20192;-70
2022/08/04 08:00:35;;;;;;;9.60;7.57;;;;;;;22.22;60.09;95094.34;5096949;28;20200;-70
2022/08/04 08:03:04;;;;;;;6.07;5.55;;;;;;;22.25;59.65;95099.13;5097005;28;20504;-71
2022/08/04 08:05:32;;;;;;;7.75;6.97;;;;;;;22.27;59.49;95097.47;5096368;28;20200;-71
2022/08/04 08:08:01;;;;;;;7.40;6.80;;;;;;;22.31;59.38;95092.56;5096642;28;20211;-71
2022/08/04 08:10:34;;;;;;;7.47;6.70;;;;;;;22.38;59.81;95096.50;5096689;28;20203;-70
2022/08/04 08:13:01;;;;;;;8.90;8.15;;;;;;;22.48;60.37;95087.88;5097464;28;20204;-70
2022/08/04 08:15:30;;;;;;;6.53;5.93;;;;;;;22.55;58.97;95096.16;5097162;28;20204;-70
2022/08/04 08:17:56;;;;;;;9.13;8.32;;;;;;;22.60;59.05;95094.88;5097097;28;20192;-71
2022/08/04 08:20:25;;;;;;;6.97;6.38;;;;;;;22.67;58.20;95091.91;5097654;28;20189;-71
2022/08/04 08:22:53;;;;;;;7.38;5.80;;;;;;;22.72;57.97;95090.63;5096728;28;20188;-71
2022/08/04 08:25:21;;;;;;;6.85;6.35;;;;;;;22.76;57.52;95086.50;5096100;28;20215;-70
2022/08/04 08:27:51;;;;;;;7.00;6.40;;;;;;;22.83;57.40;95094.00;5096218;28;20196;-71
2022/08/04 08:30:17;;;;;;;7.00;6.40;;;;;;;22.92;57.56;95093.47;5096495;28;20541;-71
2022/08/04 08:32:45;;;;;;;5.95;5.43;;;;;;;22.99;56.69;95099.75;5096255;28;20212;-71
2022/08/04 08:35:12;;;;;;;5.97;5.40;;;;;;;23.03;56.55;95105.31;5096999;28;20198;-71
2022/08/04 08:37:45;;;;;;;7.15;5.28;;;;;;;23.06;56.29;95099.59;5096593;28;20523;-71
2022/08/04 08:40:26;;;;;;;6.47;5.47;;;;;;;23.13;56.73;95092.22;5096404;28;20257;-71
2022/08/04 08:43:16;;;;;;;5.85;5.25;;;;;;;23.21;56.17;95102.13;5095724;28;20191;-71
2022/08/04 08:46:20;;;;;;;7.47;5.35;;;;;;;23.30;55.59;95093.88;5096452;28;20620;-71
2022/08/04 08:49:13;;;;;;;5.82;5.30;;;;;;;23.43;55.05;95096.81;5095527;28;20211;-71
2022/08/04 08:51:48;;;;;;;6.32;5.72;;;;;;;23.50;54.71;95094.63;5093537;28;20247;-71
2022/08/04 08:54:47;;;;;;;8.23;6.72;;;;;;;23.51;55.76;95089.78;5095490;28;20227;-71
2022/08/04 08:57:56;;;;;;;6.40;5.80;;;;;;;23.50;55.40;95088.22;5095521;28;20208;-71
2022/08/04 09:00:30;;;;;;;5.78;5.20;;;;;;;23.55;55.01;95094.09;5048867;28;20208;-71
2022/08/04 09:03:30;;;;;;;6.85;6.07;;;;;;;23.57;55.22;95093.69;5095560;28;20199;-71
2022/08/04 09:06:30;;;;;;;5.68;5.15;;;;;;;23.56;54.79;95089.25;5095822;28;20203;-71
2022/08/04 09:09:39;;;;;;;5.78;5.07;;;;;;;23.61;55.17;95085.16;5088752;28;20204;-71
2022/08/04 09:12:13;;;;;;;4.82;4.43;;;;;;;23.84;53.97;95084.25;5095412;28;20196;-71
2022/08/04 09:14:48;;;;;;;5.93;5.38;;;;;;;24.11;53.31;95076.34;5095326;28;20640;-71
2022/08/04 09:17:37;;;;;;;5.10;4.70;;;;;;;24.26;51.78;95082.41;5095596;28;20203;-70
2022/08/04 09:20:09;;;;;;;5.53;5.07;;;;;;;24.47;51.18;95078.22;5095293;28;20203;-71
2022/08/04 09:22:44;;;;;;;4.57;4.28;;;;;;;24.52;48.53;95068.47;5095293;28;20200;-72
2022/08/04 09:25:16;;;;;;;5.15;4.75;;;;;;;24.55;49.54;95076.81;5096109;28;20227;-72
2022/08/04 09:27:47;;;;;;;5.07;4.57;;;;;;;24.58;49.37;95075.91;5096044;28;20185;-72
2022/08/04 09:30:19;;;;;;;4.07;3.78;;;;;;;24.62;48.66;95067.34;5095288;28;20337;-72
2022/08/04 09:32:58;;;;;;;3.97;3.65;;;;;;;24.76;48.48;95061.31;5095441;28;20210;-72
2022/08/04 09:35:34;;;;;;;4.30;4.00;;;;;;;24.76;47.30;95069.00;5094423;28;20651;-72
2022/08/04 09:38:09;;;;;;;4.97;3.92;;;;;;;24.71;47.22;95073.94;5094914;28;20192;-71
2022/08/04 09:40:44;;;;;;;5.00;3.67;;;;;;;24.63;46.93;95063.31;5095469;28;20590;-72
2022/08/04 09:43:22;;;;;;;4.45;3.88;;;;;;;24.56;49.10;95063.53;5095784;28;20206;-71
2022/08/04 09:45:59;;;;;;;4.00;3.58;;;;;;;24.53;48.96;95062.38;5095688;28;20196;-71
2022/08/04 09:48:37;;;;;;;4.40;4.00;;;;;;;24.51;49.15;95067.69;5095035;28;20196;-71
2022/08/04 09:51:16;;;;;;;3.97;3.65;;;;;;;24.53;47.79;95067.22;5095687;28;20185;-71
2022/08/04 09:53:55;;;;;;;4.70;4.30;;;;;;;24.65;48.15;95074.94;5094353;28;20714;-71
2022/08/04 09:56:28;;;;;;;4.28;3.50;;;;;;;24.77;47.06;95071.41;5094509;28;20223;-71
2022/08/04 09:59:07;;;;;;;4.47;3.83;;;;;;;24.89;49.29;95067.81;5094904;28;20192;-71
2022/08/04 10:01:37;;;;;;;4.63;4.18;;;;;;;25.15;48.84;95056.63;5094692;28;20188;-71
2022/08/04 10:04:08;;;;;;;4.20;3.90;;;;;;;25.32;46.99;95058.13;5093866;28;20200;-71
2022/08/04 10:07:03;;;;;;;4.68;3.72;;;;;;;25.43;44.99;95060.63;5095917;28;20474;-71
2022/08/04 10:09:49;;;;;;;3.88;3.13;;;;;;;25.47;43.28;95054.88;5095377;28;20184;-71
2022/08/04 10:12:29;;;;;;;3.60;3.30;;;;;;;25.57;43.02;95051.72;5094397;28;20223;-71
2022/08/04 10:15:09;;;;;;;3.35;3.05;;;;;;;25.76;41.76;95055.56;5095322;28;20208;-72
2022/08/04 10:17:56;;;;;;;3.65;3.13;;;;;;;25.90;41.80;95049.47;5095279;28;20199;-71
2022/08/04 10:20:37;;;;;;;3.70;3.35;;;;;;;25.88;43.72;95054.78;5094654;28;20200;-70
2022/08/04 10:23:11;;;;;;;3.42;3.10;;;;;;;25.87;42.34;95044.72;5077581;28;20221;-70
2022/08/04 10:25:48;;;;;;;4.00;3.70;;;;;;;25.90;42.01;95045.84;5094319;28;20199;-71
2022/08/04 10:28:17;;;;;;;3.28;3.08;;;;;;;25.87;41.99;95041.91;5094351;28;20188;-71
2022/08/04 10:30:49;;;;;;;3.65;3.35;;;;;;;25.84;40.91;95056.13;5094278;28;20211;-71
2022/08/04 10:33:23;;;;;;;3.80;3.50;;;;;;;25.87;38.88;95044.72;5094295;28;20215;-71
2022/08/04 10:36:05;;;;;;;3.30;3.10;;;;;;;25.92;38.89;95034.88;5094145;28;20195;-72
2022/08/04 10:38:39;;;;;;;3.28;3.08;;;;;;;25.91;38.77;95042.56;5094865;28;20563;-71
2022/08/04 10:41:12;;;;;;;3.65;3.20;;;;;;;25.99;38.62;95031.03;5095173;28;20279;-71
2022/08/04 10:43:49;;;;;;;3.63;3.33;;;;;;;25.96;39.63;95034.75;5094374;28;20205;-71
2022/08/04 10:46:18;;;;;;;3.95;3.65;;;;;;;25.96;42.42;95027.06;5097758;28;20619;-71
2022/08/04 10:48:53;;;;;;;3.35;3.15;;;;;;;26.22;38.42;95025.00;5098415;28;20228;-71
2022/08/04 10:51:28;;;;;;;3.95;3.65;;;;;;;26.34;37.33;95027.00;5099486;28;20191;-71
2022/08/04 10:54:00;;;;;;;3.70;3.40;;;;;;;26.48;37.20;95022.91;5098888;28;20207;-72
2022/08/04 10:56:32;;;;;;;3.58;3.28;;;;;;;26.41;36.74;95018.25;5098011;28;20560;-71
2022/08/04 10:59:05;;;;;;;3.53;3.33;;;;;;;26.40;38.44;95021.56;5098349;28;20280;-71
2022/08/04 11:01:40;;;;;;;3.67;3.38;;;;;;;26.46;38.90;95013.28;5098074;28;20226;-72
2022/08/04 11:04:16;;;;;;;3.63;3.33;;;;;;;26.42;38.96;95019.03;5098492;28;20199;-72
2022/08/04 11:06:46;;;;;;;4.68;3.80;;;;;;;26.38;39.25;95010.69;5099282;28;20188;-70
2022/08/04 11:09:14;;;;;;;3.90;3.50;;;;;;;26.57;37.14;95010.88;5098729;28;20196;-71
2022/08/04 11:11:45;;;;;;;4.20;3.80;;;;;;;26.72;37.93;95016.81;5098768;28;20200;-72
2022/08/04 11:14:15;;;;;;;3.70;3.40;;;;;;;26.76;37.19;95006.13;5098980;28;20291;-71
2022/08/04 11:16:44;;;;;;;3.80;3.50;;;;;;;26.81;37.46;95006.34;5098819;28;20535;-71
2022/08/04 11:19:20;;;;;;;3.90;3.60;;;;;;;26.94;37.81;95003.44;5099021;28;20181;-72
2022/08/04 11:21:56;;;;;;;4.00;3.70;;;;;;;26.98;36.45;95008.97;5099008;28;20191;-72
2022/08/04 11:24:27;;;;;;;4.20;3.80;;;;;;;26.97;36.73;95001.72;5098140;28;20199;-72
2022/08/04 11:26:58;;;;;;;3.63;3.33;;;;;;;26.90;37.22;95005.63;5099021;28;20184;-72
2022/08/04 11:29:30;;;;;;;3.40;3.10;;;;;;;26.98;37.70;94997.63;5098539;28;20188;-72
2022/08/04 11:32:00;;;;;;;3.35;3.03;;;;;;;27.21;35.58;94987.91;5098364;28;20200;-71
2022/08/04 11:34:28;;;;;;;3.10;2.90;;;;;;;27.36;35.14;94992.56;5097969;28;20598;-71
2022/08/04 11:37:03;;;;;;;3.40;2.75;;;;;;;27.38;35.46;94991.28;5099088;28;20189;-71
2022/08/04 11:39:36;;;;;;;3.55;3.25;;;;;;;27.36;33.82;94991.75;5097789;28;20204;-71
2022/08/04 11:42:15;;;;;;;3.45;3.22;;;;;;;27.17;33.09;94985.22;5097372;28;20203;-71
2022/08/04 11:44:48;;;;;;;3.00;2.80;;;;;;;27.21;34.34;94987.91;5098115;28;20196;-70
2022/08/04 11:47:25;;;;;;;3.17;2.88;;;;;;;27.22;34.07;94978.94;5097637;28;20667;-71
2022/08/04 11:49:58;;;;;;;3.45;3.25;;;;;;;27.24;35.98;94978.50;5098534;28;20603;-71
2022/08/04 11:52:29;;;;;;;3.30;3.10;;;;;;;27.32;34.43;94983.41;5097411;28;20204;-71
2022/08/04 11:54:57;;;;;;;3.25;3.05;;;;;;;27.55;33.14;94979.25;5098128;28;20243;-71
2022/08/04 11:57:26;;;;;;;3.28;3.08;;;;;;;27.75;32.25;94978.09;5096194;28;20207;-71
2022/08/04 11:59:55;;;;;;;3.47;3.17;;;;;;;27.86;33.13;94974.84;5097931;28;20198;-71
2022/08/04 12:02:58;;;;;;;3.10;2.90;;;;;;;27.81;33.80;94970.53;5098327;28;20177;-71
2022/08/04 12:05:35;;;;;;;3.28;3.08;;;;;;;27.70;32.95;94976.63;5092402;28;20210;-71
2022/08/04 12:08:18;;;;;;;3.50;3.20;;;;;;;27.54;32.85;94974.84;5098027;28;20172;-71
2022/08/04 12:10:51;;;;;;;5.30;3.13;;;;;;;27.55;32.65;94972.78;5097126;28;20226;-71
2022/08/04 12:13:26;;;;;;;3.70;3.40;;;;;;;27.46;32.99;94979.22;5097739;28;20211;-70
2022/08/04 12:15:59;;;;;;;3.10;2.90;;;;;;;27.38;33.13;94975.09;5096582;28;20200;-70
2022/08/04 12:18:34;;;;;;;3.55;3.17;;;;;;;27.25;33.82;94980.84;5097762;28;20188;-70
2022/08/04 12:21:02;;;;;;;3.47;3.28;;;;;;;27.13;33.62;94975.31;5097723;28;20188;-70